Armstrong, Florida
Current Conditions -  °F | °C
As of 1:58 PM on Thursday 30 Oct 2014 (Local Time) from KSGJ Reporting Station
Haze Haze  
Wind Chill: 75°   Ceiling: 11000
Heat Index: 75°   Visibility: 5mi
Dew Point: 68°   Wind: 10mph
Humidity: 79%   Direction: 40°NE
Pressure: 29.93"   Gusts: NA
Location:  29.7919°N, 81.4499°W
Report Text: KSGJ 301758Z 04009KT 5SM HZ FEW030 OVC110 24/20 A2993 RMK AO2 RAB34E48 SLP135 P0000 60000 T02390200 10250 20178 58020
Loading
Personal Weather Stations






























Interactive Weather Map
Tropical Storm Tracking
New forecast layout! Learn more

10-Day Weather Forecast

Advertisements
Track Severe Weather on mobile